Tiempo atmosférico en la estación meteorológica de Fuentes de Andalucía, Sevilla (165 m.)



Fecha
DESCASC
Temp. máxima en grados centígrados (hora)
DESCASC
Temp. mínima en grados centígrados (hora)
DESCASC
Temp. media en grados centígrados
DESCASC
Racha de viento máxima en m/sg (hora)
DESCASC
Velocidad máxima media en intervalos de 10 minutos(hora)
DESCASC
Precipitaciones diarias en mm
DESCASC
Precipitaciones de 00:00 a 06:00 en mm
DESCASC
Precipitaciones de 06:00 a 12:00 en mm
DESCASC
Precipitaciones de 12:00 a 18:00 en mm
DESCASC
Precipitaciones de 18:00 a 24:00 en mm
DESCASC
18-08-2019 36.3 (17:50) 22.7 (06:00) 29.5 13.89 (19:40) 9.72 (22:20) 0 0 0 0 0
17-08-2019 40.3 (17:30) 21.6 (07:20) 30.9 10 (21:10) 7.5 (21:10) 0 0 0 0 0
16-08-2019 38.6 (17:20) 21.9 (08:20) 30.2 8.89 (22:10) 6.94 (20:50) 0 0 0 0 0
15-08-2019 39.7 (18:40) 21.3 (00:00) 30.5 12.78 (22:40) 7.5 (23:30) 0 0 0 0 0
14-08-2019 38 (18:00) 19.9 (00:00) 28.9 8.89 (23:00) 7.22 (23:20) 0 0 0 0 0
13-08-2019 36.2 (18:30) 18.3 (00:00) 27.3 7.78 (15:50) 5.56 (23:30) 0 0 0 0 0
12-08-2019 34.2 (17:20) 19.3 (00:00) 26.8 7.5 (18:00) 4.17 (22:20) 0 0 0 0 0
11-08-2019 33.6 (17:20) 18.1 (00:00) 25.8 9.44 (16:20) 6.39 (20:30) 0 0 0 0 0
10-08-2019 36 (17:40) 20.8 (00:00) 28.4 13.61 (20:40) 7.78 (22:10) 0 0 0 0 0
09-08-2019 35.2 (17:40) 19.3 (00:00) 27.3 11.94 (19:40) 8.33 (19:10) 0 0 0 0 0
08-08-2019 37.6 (17:10) 20.5 (00:00) 29 11.11 (19:40) 7.78 (20:00) 0 0 0 0 0
07-08-2019 34.9 (18:10) 20.5 (00:00) 27.7 9.72 (21:40) 6.39 (21:40) 0 0 0 0 0
06-08-2019 37.2 (17:40) 18.4 (00:00) 27.8 9.72 (20:50) 7.78 (20:50) 0 0 0 0 0
05-08-2019 38.4 (17:40) 20.6 (00:00) 29.5 14.17 (19:40) 9.17 (19:20) 0 0 0 0 0
04-08-2019 37.2 (18:40) 19.7 (00:00) 28.5 10.28 (20:10) 7.78 (21:00) 0 0 0 0 0
03-08-2019 35.3 (16:30) 20 (00:00) 27.6 9.72 (17:40) 6.94 (22:20) 0 0 0 0 0
02-08-2019 37.7 (17:30) 21.3 (00:00) 29.5 11.39 (17:30) 7.22 (20:30) 0 0 0 0 0
01-08-2019 36.6 (19:00) 22.4 (00:00) 29.5 13.06 (21:40) 9.44 (21:00) 0 0 0 0 0
31-07-2019 36.5 (17:10) 21.1 (00:00) 28.8 10.83 (22:40) 8.06 (21:20) 0 0 0 0 0
30-07-2019 36.7 (17:30) 19 (00:00) 27.9 8.89 (17:30) 4.17 (21:00) 0 0 0 0 0
29-07-2019 35.5 (18:40) 18.1 (00:00) 26.8 11.67 (20:40) 8.33 (20:40) 0 0 0 0 0
28-07-2019 32.7 (18:50) 18.6 (00:00) 25.7 12.22 (21:40) 8.89 (20:50) 0 0 0 0 0
27-07-2019 28.6 (15:30) 18 (00:00) 23.3 16.94 (18:40) 11.11 (19:00) 0 0 0 0 0
26-07-2019 32.8 (17:50) 20.3 (00:00) 26.5 16.11 (18:40) 11.39 (20:00) 0 0 0 0 0
25-07-2019 36 (15:50) 22 (00:00) 29 13.89 (17:40) 8.89 (19:10) 0 0 0 0 0
24-07-2019 38.3 (16:50) 22.6 (00:00) 30.4 12.5 (22:40) 8.33 (21:50) 0 0 0 0 0
23-07-2019 38.5 (17:10) 23.8 (00:00) 31.1 12.5 (18:40) 8.06 (20:30) 0 0 0 0 0
22-07-2019 39.8 (18:00) 23.5 (00:00) 31.6 12.22 (22:40) 8.33 (23:00) 0 0 0 0 0
21-07-2019 38.1 (16:50) 22.9 (00:00) 30.5 12.78 (00:40) 7.22 (23:10) 0 0 0 0 0

Gráficas

Temp. máximas Temp. mínimas Temp. medias Precipitaciones Rachas de viento máximas Velocidades máximas media en intervalos de 10 minutos

Datos horarios

Fecha y hora oficial Temperatura (ºC) Velocidad del viento (km/h) Dirección del viento Racha (km/h) Dirección de racha Precipitación (mm) Presión (hPa) Tendencia (hPa) Humedad (%)
2019-08-19 23:00:00 25.2 25 Sudoeste 36 Sudoeste 0 -- -- 46
2019-08-19 22:00:00 27.4 27 Sudoeste 36 Sudoeste 0 -- -- 42
2019-08-19 21:00:00 30 31 Sudoeste 46 Sudoeste 0 -- -- 33
2019-08-19 20:00:00 32.8 32 Sudoeste 45 Sudoeste 0 -- -- 26
2019-08-19 19:00:00 34.2 25 Oeste 36 Oeste 0 -- -- 34
2019-08-19 18:00:00 35 23 Sudoeste 34 Sudoeste 0 -- -- 35
2019-08-19 17:00:00 35.1 21 Oeste 33 Sudoeste 0 -- -- 27
2019-08-19 16:00:00 34.5 21 Oeste 33 Oeste 0 -- -- 28
2019-08-19 15:00:00 33.7 17 Oeste 30 Oeste 0 -- -- 32
2019-08-19 14:00:00 32.4 14 Oeste 29 Sudoeste 0 -- -- 38
2019-08-19 13:00:00 30.6 8 Sudoeste 19 Sudoeste 0 -- -- 43
2019-08-19 12:00:00 28.3 7 Sudoeste 14 Sudoeste 0 -- -- 49
2019-08-19 11:00:00 25.8 10 Sur 23 Sudoeste 0 -- -- 57
2019-08-19 10:00:00 23 13 Sur 16 Sur 0 -- -- 64
2019-08-19 09:00:00 21.1 8 Sudoeste 9 Sur 0 -- -- 67
2019-08-19 08:00:00 20.5 7 Sudoeste 13 Sudoeste 0 -- -- 70
2019-08-19 07:00:00 20.9 6 Sudoeste 10 Sudoeste 0 -- -- 67
2019-08-19 06:00:00 21.2 6 Sudoeste 13 Sudoeste 0 -- -- 65
2019-08-19 05:00:00 21.4 13 Sur 16 Sudoeste 0 -- -- 63
2019-08-19 04:00:00 21.9 13 Sudoeste 19 Sudoeste 0 -- -- 62
2019-08-19 03:00:00 22 14 Sudoeste 23 Sudoeste 0 -- -- 61
2019-08-19 02:00:00 22.5 15 Sudoeste 22 Sudoeste 0 -- -- 59
2019-08-19 01:00:00 23.2 18 Sudoeste 24 Sudoeste 0 -- -- 57
2019-08-19 00:00:00 23.9 13 Sudoeste 33 Sudoeste 0 -- -- 56
2019-08-18 23:00:00 24.9 27 Sudoeste 44 Sudoeste 0 -- -- 52
2019-08-18 22:00:00 26.6 34 Sudoeste 44 Sudoeste 0 -- -- 50
2019-08-18 21:00:00 30.1 32 Sudoeste 44 Sudoeste 0 -- -- 39
2019-08-18 20:00:00 33.2 33 Sudoeste 50 Sudoeste 0 -- -- 31
2019-08-18 19:00:00 35.5 29 Sudoeste 40 Sudoeste 0 -- -- 28
2019-08-18 18:00:00 36.1 22 Sudoeste 46 Oeste 0 -- -- 28
2019-08-18 17:00:00 35.6 22 Oeste 43 Sudoeste 0 -- -- 29
2019-08-18 16:00:00 35.1 24 Sudoeste 38 Sudoeste 0 -- -- 33
2019-08-18 15:00:00 34 22 Oeste 45 Sudoeste 0 -- -- 34
2019-08-18 14:00:00 33.1 23 Sudoeste 41 Sudoeste 0 -- -- 37
2019-08-18 13:00:00 31 22 Sudoeste 32 Sudoeste 0 -- -- 38
2019-08-18 12:00:00 29.7 18 Sudoeste 36 Sudoeste 0 -- -- 41
2019-08-18 11:00:00 27.5 18 Sudoeste 28 Sudoeste 0 -- -- 48
2019-08-18 10:00:00 25.2 18 Sudoeste 33 Sudoeste 0 -- -- 47
2019-08-18 09:00:00 23.3 12 Sudoeste 16 Sudoeste 0 -- -- 44
2019-08-18 08:00:00 23.8 7 Sudoeste 9 Sudoeste 0 -- -- 43
2019-08-18 07:00:00 23.3 5 Sur 7 Este 0 -- -- 44
2019-08-18 06:00:00 22.7 6 Este 9 Nordeste 0 -- -- 45
2019-08-18 05:00:00 23.7 5 Noroeste 16 Sudoeste 0 -- -- 42
2019-08-18 04:00:00 23.8 8 Sudoeste 16 Sur 0 -- -- 42
2019-08-18 03:00:00 24.1 14 Sudoeste 23 Sudoeste 0 -- -- 41
2019-08-18 02:00:00 25 16 Sur 22 Sur 0 -- -- 41
2019-08-18 01:00:00 26.4 17 Sur 26 Sudoeste 0 -- -- 41
2019-08-18 00:00:00 28.5 23 Sudoeste 30 Sudoeste 0 -- -- 37
2019-08-17 23:00:00 30.4 19 Sudoeste 25 Sudoeste 0 -- -- 32
2019-08-17 22:00:00 32.7 20 Sudoeste 36 Sudoeste 0 -- -- 28
2019-08-17 21:00:00 35.7 26 Sudoeste 33 Sudoeste 0 -- -- 26
2019-08-17 20:00:00 38.2 17 Oeste 33 Oeste 0 -- -- 21
2019-08-17 19:00:00 39.5 21 Oeste 31 Oeste 0 -- -- 19
2019-08-17 18:00:00 40 17 Oeste 30 Sudoeste 0 -- -- 20
2019-08-17 17:00:00 39.9 17 Oeste 28 Oeste 0 -- -- 20
2019-08-17 16:00:00 39.7 15 Oeste 22 Sudoeste 0 -- -- 18
2019-08-17 15:00:00 38.9 9 Oeste 21 Oeste 0 -- -- 19
2019-08-17 14:00:00 38 5 Nordeste 18 Nordeste 0 -- -- 20
2019-08-17 13:00:00 36.2 5 Este 15 Este 0 -- -- 24
2019-08-17 12:00:00 33.8 6 Nordeste 15 Este 0 -- -- 28
2019-08-17 11:00:00 30.9 7 Nordeste 13 Nordeste 0 -- -- 31
2019-08-17 10:00:00 27.7 7 Este 12 Este 0 -- -- 36
2019-08-17 09:00:00 22.7 4 Este 11 Este 0 -- -- 50
2019-08-17 08:00:00 22.1 6 Este 9 Este 0 -- -- 48
2019-08-17 07:00:00 21.9 4 Sudeste 5 Sudeste 0 -- -- 51
2019-08-17 06:00:00 23.5 4 Sur 9 Sudeste 0 -- -- 49
2019-08-17 05:00:00 23.2 4 Sur 13 Sur 0 -- -- 50
2019-08-17 04:00:00 23.1 10 Sur 15 Sur 0 -- -- 49
2019-08-17 03:00:00 23.2 15 Sur 19 Sudoeste 0 -- -- 49
2019-08-17 02:00:00 24.4 18 Sur 23 Sur 0 -- -- 48
2019-08-17 01:00:00 25.9 13 Sudoeste 20 Sudoeste 0 -- -- 43
2019-08-17 00:00:00 27.7 15 Sudoeste 23 Sudoeste 0 -- -- 39
2019-08-16 23:00:00 29.8 18 Sudoeste 32 Sudoeste 0 -- -- 35
2019-08-16 22:00:00 31.9 22 Sudoeste 31 Sudoeste 0 -- -- 31
2019-08-16 21:00:00 34.6 23 Sudoeste 32 Sudoeste 0 -- -- 27
2019-08-16 20:00:00 37 20 Oeste 30 Sudoeste 0 -- -- 24
2019-08-16 19:00:00 37.9 16 Oeste 29 Oeste 0 -- -- 25
2019-08-16 18:00:00 38.4 18 Oeste 32 Sudoeste 0 -- -- 23
2019-08-16 17:00:00 38.3 17 Sudoeste 30 Sudoeste 0 -- -- 23
2019-08-16 16:00:00 38 11 Sudoeste 27 Sudoeste 0 -- -- 24
2019-08-16 15:00:00 36.9 8 Oeste 25 Oeste 0 -- -- 25
2019-08-16 14:00:00 35.4 11 Oeste 20 Sudoeste 0 -- -- 26
2019-08-16 13:00:00 33.6 8 Oeste 16 Oeste 0 -- -- 29
2019-08-16 12:00:00 31.8 4 Oeste 15 Oeste 0 -- -- 32
2019-08-16 11:00:00 29.8 3 Noroeste 7 Sur 0 -- -- 38
2019-08-16 10:00:00 27.2 0 Calma 9 Este 0 -- -- 44
2019-08-16 09:00:00 23.3 5 Este 9 Este 0 -- -- 55
2019-08-16 08:00:00 22 8 Este 11 Nordeste 0 -- -- 57
2019-08-16 07:00:00 23 0 Calma 6 Sur 0 -- -- 54
2019-08-16 06:00:00 24.1 6 Sur 14 Sur 0 -- -- 52
2019-08-16 05:00:00 24 8 Sur 15 Sudoeste 0 -- -- 53
2019-08-16 04:00:00 23.6 10 Sur 13 Sur 0 -- -- 51
2019-08-16 03:00:00 24.3 14 Sudoeste 28 Sur 0 -- -- 48
2019-08-16 02:00:00 25 16 Sur 22 Sudoeste 0 -- -- 49
2019-08-16 01:00:00 26.2 14 Sur 26 Sudoeste 0 -- -- 47
2019-08-16 00:00:00 28.1 21 Sudoeste 36 Sudoeste 0 -- -- 41
2019-08-15 23:00:00 30.3 27 Sudoeste 46 Sudoeste 0 -- -- 35
2019-08-15 22:00:00 33.1 17 Oeste 29 Oeste 0 -- -- 31
2019-08-15 21:00:00 35.5 26 Oeste 33 Oeste 0 -- -- 28
2019-08-15 20:00:00 38.6 12 Oeste 19 Noroeste 0 -- -- 20
2019-08-15 19:00:00 39.3 10 Noroeste 18 Noroeste 0 -- -- 19
2019-08-15 18:00:00 39.2 9 Oeste 18 Oeste 0 -- -- 19
2019-08-15 17:00:00 38.9 8 Sur 18 Norte 0 -- -- 21
2019-08-15 16:00:00 39.1 6 Nordeste 18 Este 0 -- -- 22
2019-08-15 15:00:00 37.5 9 Norte 21 Norte 0 -- -- 25
2019-08-15 14:00:00 35.8 6 Noroeste 13 Nordeste 0 -- -- 30
2019-08-15 13:00:00 33.8 5 Este 12 Nordeste 0 -- -- 35
2019-08-15 12:00:00 31.6 3 Este 9 Este 0 -- -- 42
2019-08-15 11:00:00 28.6 4 Norte 9 Oeste 0 -- -- 52
2019-08-15 10:00:00 26.4 3 Norte 10 Este 0 -- -- 58
2019-08-15 09:00:00 23.1 6 Este 10 Este 0 -- -- 66
2019-08-15 08:00:00 21.3 6 Este 9 Este 0 -- -- 71
2019-08-15 07:00:00 22.2 5 Nordeste 8 Nordeste 0 -- -- 68
2019-08-15 06:00:00 23 0 Calma 6 Sudoeste 0 -- -- 67
2019-08-15 05:00:00 23.3 4 Sudoeste 8 Sudoeste 0 -- -- 65
2019-08-15 04:00:00 22.8 7 Noroeste 17 Sudoeste 0 -- -- 63
2019-08-15 03:00:00 24 15 Sudoeste 23 Sudoeste 0 -- -- 58
2019-08-15 02:00:00 24.6 14 Sudoeste 19 Sudoeste 0 -- -- 53
2019-08-15 01:00:00 26.1 16 Sudoeste 32 Sudoeste 0 -- -- 51
2019-08-15 00:00:00 27.2 24 Sudoeste 32 Sudoeste 0 -- -- 49
2019-08-14 23:00:00 29.9 21 Sudoeste 32 Sudoeste 0 -- -- 43
2019-08-14 22:00:00 33.7 3 Sur 5 Sudeste 0 -- -- 21
2019-08-14 21:00:00 36.2 2 Sudeste 6 Este 0 -- -- 20
2019-08-14 20:00:00 37.1 4 Sudeste 12 Norte 0 -- -- 19
2019-08-14 19:00:00 37.5 5 Noroeste 16 Norte 0 -- -- 19
2019-08-14 18:00:00 38 5 Nordeste 20 Noroeste 0 -- -- 19
2019-08-14 17:00:00 37.4 5 Norte 18 Nordeste 0 -- -- 21
2019-08-14 16:00:00 36.6 6 Sudoeste 19 Este 0 -- -- 24
2019-08-14 15:00:00 35.8 11 Noroeste 21 Norte 0 -- -- 27
2019-08-14 14:00:00 34.3 5 Nordeste 18 Este 0 -- -- 31
2019-08-14 13:00:00 32.8 6 Nordeste 15 Este 0 -- -- 36
2019-08-14 12:00:00 31.2 5 Nordeste 14 Este 0 -- -- 43
2019-08-14 11:00:00 28.6 6 Nordeste 14 Este 0 -- -- 52
2019-08-14 10:00:00 26.6 7 Este 13 Nordeste 0 -- -- 54
2019-08-14 09:00:00 22.2 5 Este 12 Este 0 -- -- 47
2019-08-14 08:00:00 20.3 5 Este 9 Este 0 -- -- 50
2019-08-14 07:00:00 20.5 8 Nordeste 13 Nordeste 0 -- -- 47
2019-08-14 06:00:00 21 4 Nordeste 12 Sur 0 -- -- 46
2019-08-14 05:00:00 22.2 11 Sudoeste 16 Sur 0 -- -- 49
2019-08-14 04:00:00 21.3 12 Sur 22 Sur 0 -- -- 43
2019-08-14 03:00:00 21.6 18 Sur 25 Sur 0 -- -- 43
2019-08-14 02:00:00 22.7 14 Sudoeste 17 Sur 0 -- -- 43
2019-08-14 01:00:00 23.6 10 Sudoeste 20 Sudoeste 0 -- -- 43
2019-08-14 00:00:00 25.6 18 Sudoeste 26 Sudoeste 0 -- -- 39
2019-08-13 23:00:00 27.6 15 Sudoeste 24 Sudoeste 0 -- -- 28
2019-08-13 22:00:00 29.9 19 Oeste 27 Sudoeste 0 -- -- 26
2019-08-13 21:00:00 33.2 12 Sudoeste 23 Oeste 0 -- -- 15
2019-08-13 20:00:00 35.1 13 Sudoeste 22 Sudoeste 0 -- -- 14
2019-08-13 19:00:00 35.6 11 Oeste 21 Sur 0 -- -- 14
2019-08-13 18:00:00 35.8 9 Oeste 20 Sur 0 -- -- 14
2019-08-13 17:00:00 35.8 7 Oeste 15 Noroeste 0 -- -- 15
2019-08-13 16:00:00 35.3 11 Sur 28 Sudoeste 0 -- -- 17
2019-08-13 15:00:00 34.4 10 Sudoeste 27 Sudoeste 0 -- -- 19
2019-08-13 14:00:00 33.1 9 Sudoeste 20 Sudoeste 0 -- -- 21
2019-08-13 13:00:00 31.9 7 Sur 17 Sudoeste 0 -- -- 24
2019-08-13 12:00:00 30.1 10 Sur 17 Sur 0 -- -- 30
2019-08-13 11:00:00 28.7 6 Sudeste 19 Este 0 -- -- 42
2019-08-13 10:00:00 25.3 11 Este 18 Nordeste 0 -- -- 36
2019-08-13 09:00:00 19.8 7 Este 12 Nordeste 0 -- -- 44
2019-08-13 08:00:00 18.5 3 Este 10 Este 0 -- -- 50
2019-08-13 07:00:00 18.6 5 Este 8 Este 0 -- -- 51
2019-08-13 06:00:00 20.7 3 Este 10 Este 0 -- -- 43
2019-08-13 05:00:00 21.1 7 Sur 14 Sur 0 -- -- 45
2019-08-13 04:00:00 20.6 10 Sur 15 Sur 0 -- -- 50
2019-08-13 03:00:00 21 9 Sudoeste 15 Sudoeste 0 -- -- 49
2019-08-13 02:00:00 21.9 12 Sur 17 Sur 0 -- -- 47
2019-08-13 01:00:00 23 12 Sudoeste 16 Sur 0 -- -- 41
2019-08-13 00:00:00 24.4 10 Sudoeste 15 Sudoeste 0 -- -- 34
2019-08-12 23:00:00 26 12 Sur 20 Oeste 0 -- -- 29
2019-08-12 22:00:00 27.9 12 Oeste 21 Sudoeste 0 -- -- 21
2019-08-12 21:00:00 31.3 12 Oeste 16 Sudoeste 0 -- -- 15
2019-08-12 20:00:00 33.1 8 Oeste 21 Oeste 0 -- -- 13
2019-08-12 19:00:00 34.1 10 Oeste 21 Noroeste 0 -- -- 12
2019-08-12 18:00:00 34 10 Oeste 27 Noroeste 0 -- -- 14
2019-08-12 17:00:00 33.8 8 Norte 19 Nordeste 0 -- -- 14
2019-08-12 16:00:00 32.7 10 Norte 23 Noroeste 0 -- -- 16
2019-08-12 15:00:00 32.3 8 Norte 19 Nordeste 0 -- -- 16
2019-08-12 14:00:00 31 6 Norte 22 Nordeste 0 -- -- 18
2019-08-12 13:00:00 29.8 6 Nordeste 21 Norte 0 -- -- 22
2019-08-12 12:00:00 27.5 12 Norte 23 Nordeste 0 -- -- 29
2019-08-12 11:00:00 24.4 6 Nordeste 17 Norte 0 -- -- 36
2019-08-12 10:00:00 22.5 9 Nordeste 21 Norte 0 -- -- 41
2019-08-12 09:00:00 20.7 10 Nordeste 20 Nordeste 0 -- -- 45
2019-08-12 08:00:00 19.5 8 Nordeste 18 Nordeste 0 -- -- 47
2019-08-12 07:00:00 20 8 Nordeste 16 Nordeste 0 -- -- 45
2019-08-12 06:00:00 20 6 Nordeste 17 Nordeste 0 -- -- 44
2019-08-12 05:00:00 20.6 5 Nordeste 14 Nordeste 0 -- -- 40
2019-08-12 04:00:00 21.1 5 Nordeste 12 Norte 0 -- -- 36
2019-08-12 03:00:00 22.3 5 Nordeste 21 Norte 0 -- -- 34
2019-08-12 02:00:00 22.6 12 Norte 19 Norte 0 -- -- 31
2019-08-12 01:00:00 23 12 Norte 18 Noroeste 0 -- -- 30
2019-08-12 00:00:00 23.7 13 Noroeste 18 Norte 0 -- -- 29
2019-08-11 23:00:00 25.5 12 Norte 31 Norte 0 -- -- 26
2019-08-11 22:00:00 27.6 17 Norte 30 Norte 0 -- -- 23
2019-08-11 21:00:00 30.5 15 Noroeste 29 Noroeste 0 -- -- 18
2019-08-11 20:00:00 32.5 13 Oeste 34 Noroeste 0 -- -- 19
2019-08-11 19:00:00 32.7 14 Oeste 28 Oeste 0 -- -- 18
2019-08-11 18:00:00 33.4 13 Noroeste 29 Noroeste 0 -- -- 19
2019-08-11 17:00:00 33.2 14 Noroeste 34 Sudoeste 0 -- -- 19
2019-08-11 16:00:00 32.3 13 Oeste 25 Oeste 0 -- -- 20
2019-08-11 15:00:00 30.9 11 Sudoeste 24 Oeste 0 -- -- 25
2019-08-11 14:00:00 29 9 Sudoeste 19 Sudoeste 0 -- -- 32
2019-08-11 13:00:00 27.2 10 Oeste 21 Oeste 0 -- -- 37
2019-08-11 12:00:00 23.7 6 Oeste 10 Oeste 0 -- -- 48
2019-08-11 11:00:00 22 4 Norte 13 Noroeste 0 -- -- 53
2019-08-11 10:00:00 21.4 7 Norte 9 Norte 0 -- -- 55
2019-08-11 09:00:00 21.2 4 Noroeste 5 Noroeste 0 -- -- 56
2019-08-11 08:00:00 19.2 4 Sur 8 Sur 0 -- -- 62
2019-08-11 07:00:00 18.2 6 Oeste 12 Este 0 -- -- 62
2019-08-11 06:00:00 19.4 8 Sur 13 Sur 0 -- -- 61
2019-08-11 05:00:00 20.2 8 Sudoeste 17 Sur 0 -- -- 58
2019-08-11 04:00:00 20.4 8 Sudoeste 14 Sudoeste 0 -- -- 58
2019-08-11 03:00:00 20.9 12 Sudoeste 21 Sudoeste 0 -- -- 58
2019-08-11 02:00:00 21.6 14 Sudoeste 25 Sudoeste 0 -- -- 55
2019-08-11 01:00:00 22.4 18 Sudoeste 27 Sudoeste 0 -- -- 53
2019-08-11 00:00:00 23.3 22 Sudoeste 34 Sudoeste 0 -- -- 51
2019-08-10 23:00:00 24.9 26 Sudoeste 37 Sudoeste 0 -- -- 46
2019-08-10 22:00:00 28.1 23 Sudoeste 35 Sudoeste 0 -- -- 39
2019-08-10 21:00:00 31.7 26 Sudoeste 49 Sudoeste 0 -- -- 34
2019-08-10 20:00:00 33.9 19 Oeste 34 Sudoeste 0 -- -- 36
2019-08-10 19:00:00 35 22 Sudoeste 42 Sudoeste 0 -- -- 32
2019-08-10 18:00:00 35.8 14 Sudoeste 42 Oeste 0 -- -- 34
2019-08-10 17:00:00 35.5 17 Oeste 31 Oeste 0 -- -- 34
2019-08-10 16:00:00 34.3 11 Sudoeste 27 Sudoeste 0 -- -- 37
2019-08-10 15:00:00 33.1 5 Oeste 26 Oeste 0 -- -- 38
2019-08-10 14:00:00 32.5 9 Nordeste 17 Sur 0 -- -- 40
2019-08-10 13:00:00 30.5 5 Sudoeste 14 Norte 0 -- -- 44
2019-08-10 12:00:00 29.6 6 Nordeste 17 Este 0 -- -- 45
2019-08-10 11:00:00 27.9 7 Nordeste 17 Norte 0 -- -- 48
2019-08-10 10:00:00 25.5 9 Nordeste 18 Nordeste 0 -- -- 55
2019-08-10 09:00:00 22 0 Calma 5 Sur 0 -- -- 85
2019-08-10 08:00:00 21 4 Sur 9 Sur 0 -- -- 87
2019-08-10 07:00:00 21 6 Sudoeste 13 Sudoeste 0 -- -- 86
2019-08-10 06:00:00 21.4 4 Oeste 14 Sudoeste 0 -- -- 84
2019-08-10 05:00:00 21.8 11 Sudoeste 18 Sudoeste 0 -- -- 82
2019-08-10 04:00:00 22.1 12 Sudoeste 21 Sudoeste 0 -- -- 82
2019-08-10 03:00:00 22.4 16 Sudoeste 27 Sudoeste 0 -- -- 81
2019-08-10 02:00:00 23 15 Sudoeste 24 Sudoeste 0 -- -- 79
2019-08-10 01:00:00 23.3 19 Sudoeste 26 Sudoeste 0 -- -- 79
2019-08-10 00:00:00 24 20 Sudoeste 35 Sudoeste 0 -- -- 76
2019-08-09 23:00:00 25.1 25 Sudoeste 34 Sudoeste 0 -- -- 71
2019-08-09 22:00:00 26.5 26 Sudoeste 35 Sudoeste 0 -- -- 66
2019-08-09 21:00:00 28.6 27 Sudoeste 38 Sudoeste 0 -- -- 56
2019-08-09 20:00:00 30.9 30 Sudoeste 43 Sudoeste 0 -- -- 48
2019-08-09 19:00:00 33.9 24 Oeste 36 Oeste 0 -- -- 38
2019-08-09 18:00:00 35.2 23 Sudoeste 38 Sudoeste 0 -- -- 33
2019-08-09 17:00:00 34.9 18 Oeste 33 Oeste 0 -- -- 32
2019-08-09 16:00:00 34.3 23 Oeste 33 Oeste 0 -- -- 34
2019-08-09 15:00:00 33.5 16 Oeste 29 Oeste 0 -- -- 37
2019-08-09 14:00:00 31.6 10 Sudoeste 25 Sudoeste 0 -- -- 44
2019-08-09 13:00:00 30.1 12 Oeste 22 Oeste 0 -- -- 50
2019-08-09 12:00:00 27.6 10 Sudoeste 18 Oeste 0 -- -- 58
2019-08-09 11:00:00 25 6 Sur 17 Sur 0 -- -- 66
2019-08-09 10:00:00 22.7 8 Sur 14 Sur 0 -- -- 75
2019-08-09 09:00:00 20.9 7 Sudoeste 10 Sudoeste 0 -- -- 84
2019-08-09 08:00:00 19.3 5 Oeste 10 Sudoeste 0 -- -- 81
2019-08-09 07:00:00 19.5 10 Sudoeste 16 Sudoeste 0 -- -- 78
2019-08-09 06:00:00 20.2 14 Sudoeste 21 Sudoeste 0 -- -- 78
2019-08-09 05:00:00 20.6 17 Sudoeste 22 Sudoeste 0 -- -- 80
2019-08-09 04:00:00 20.8 16 Sudoeste 27 Sudoeste 0 -- -- 78
2019-08-09 03:00:00 21.5 19 Sudoeste 24 Sudoeste 0 -- -- 74
2019-08-09 02:00:00 21.9 21 Sudoeste 30 Sudoeste 0 -- -- 71
2019-08-09 01:00:00 22.4 20 Sudoeste 29 Sudoeste 0 -- -- 64
2019-08-09 00:00:00 23.9 21 Sudoeste 38 Sudoeste 0 -- -- 55
2019-08-08 23:00:00 25.8 17 Sudoeste 35 Sudoeste 0 -- -- 47
2019-08-08 22:00:00 28.4 23 Sudoeste 34 Sudoeste 0 -- -- 40
2019-08-08 21:00:00 32 27 Sudoeste 35 Sudoeste 0 -- -- 33
2019-08-08 20:00:00 34.4 28 Sudoeste 40 Sudoeste 0 -- -- 32
2019-08-08 19:00:00 36.5 20 Oeste 36 Oeste 0 -- -- 25
2019-08-08 18:00:00 37.4 25 Sudoeste 39 Sudoeste 0 -- -- 21
2019-08-08 17:00:00 37.2 14 Oeste 33 Oeste 0 -- -- 23
2019-08-08 16:00:00 36.7 13 Oeste 28 Oeste 0 -- -- 22
2019-08-08 15:00:00 35.5 6 Oeste 20 Noroeste 0 -- -- 26
2019-08-08 14:00:00 34.1 8 Oeste 17 Noroeste 0 -- -- 29
2019-08-08 13:00:00 32.9 5 Noroeste 14 Este 0 -- -- 32
2019-08-08 12:00:00 31.1 7 Nordeste 14 Este 0 -- -- 37
2019-08-08 11:00:00 28.7 5 Este 14 Este 0 -- -- 45
2019-08-08 10:00:00 24.6 3 Oeste 10 Sudoeste 0 -- -- 59
2019-08-08 09:00:00 22.1 5 Sudoeste 9 Sudoeste 0 -- -- 67
2019-08-08 08:00:00 20.5 8 Sudoeste 17 Sur 0 -- -- 70
2019-08-08 07:00:00 21.1 5 Sudoeste 13 Sur 0 -- -- 69
2019-08-08 06:00:00 21.1 12 Sur 19 Sur 0 -- -- 67
2019-08-08 05:00:00 21.6 12 Sudoeste 20 Sudoeste 0 -- -- 65
2019-08-08 04:00:00 22 13 Sudoeste 19 Sudoeste 0 -- -- 64
2019-08-08 03:00:00 23 13 Sudoeste 20 Sudoeste 0 -- -- 62
2019-08-08 02:00:00 23.8 18 Sudoeste 31 Sudoeste 0 -- -- 61
2019-08-08 01:00:00 24.7 18 Sudoeste 27 Sur 0 -- -- 58
2019-08-08 00:00:00 26 16 Sudoeste 27 Sudoeste 0 -- -- 56
2019-08-07 23:00:00 28.3 11 Sudoeste 22 Sudoeste 0 -- -- 47
2019-08-07 22:00:00 29.8 20 Sudoeste 35 Sudoeste 0 -- -- 42
2019-08-07 21:00:00 32.6 4 Norte 10 Noroeste 0 -- -- 32
2019-08-07 20:00:00 33.3 5 Norte 15 Norte 0 -- -- 32
2019-08-07 19:00:00 34.1 5 Norte 23 Noroeste 0 -- -- 30
2019-08-07 18:00:00 34.7 11 Noroeste 23 Oeste 0 -- -- 30
2019-08-07 17:00:00 33.7 14 Oeste 24 Oeste 0 -- -- 30
2019-08-07 16:00:00 33.3 14 Oeste 21 Sudoeste 0 -- -- 33
2019-08-07 15:00:00 31.9 9 Oeste 18 Oeste 0 -- -- 35
2019-08-07 14:00:00 31.3 9 Oeste 21 Oeste 0 -- -- 38
2019-08-07 13:00:00 29.3 7 Oeste 22 Sudoeste 0 -- -- 46
2019-08-07 12:00:00 28.3 5 Sur 12 Sur 0 -- -- 47
2019-08-07 11:00:00 25.2 4 Oeste 12 Oeste 0 -- -- 59
2019-08-07 10:00:00 23.6 6 Sudoeste 14 Sudoeste 0 -- -- 65
2019-08-07 09:00:00 21.7 7 Sudoeste 11 Sudoeste 0 -- -- 67
2019-08-07 08:00:00 20.6 10 Sudoeste 20 Sudoeste 0 -- -- 66
2019-08-07 07:00:00 20.6 10 Sudoeste 16 Sudoeste 0 -- -- 63
2019-08-07 06:00:00 20.7 12 Sudoeste 13 Sudoeste 0 -- -- 57
2019-08-07 05:00:00 21.2 9 Sudoeste 17 Sudoeste 0 -- -- 56
2019-08-07 04:00:00 21.8 13 Sudoeste 20 Sudoeste 0 -- -- 53
2019-08-07 03:00:00 22.1 16 Sudoeste 26 Sudoeste 0 -- -- 51
2019-08-07 02:00:00 22.6 17 Sudoeste 26 Sudoeste 0 -- -- 49
2019-08-07 01:00:00 23.5 20 Sudoeste 27 Sudoeste 0 -- -- 50
2019-08-07 00:00:00 24.8 18 Sudoeste 32 Sudoeste 0 -- -- 47
2019-08-06 23:00:00 27.4 22 Sudoeste 31 Sudoeste 0 -- -- 38
2019-08-06 22:00:00 30.1 19 Sudoeste 33 Sudoeste 0 -- -- 24
2019-08-06 21:00:00 33.1 27 Sudoeste 35 Sudoeste 0 -- -- 21
2019-08-06 20:00:00 35.9 17 Oeste 29 Oeste 0 -- -- 18
2019-08-06 19:00:00 36.8 18 Oeste 29 Oeste 0 -- -- 13
2019-08-06 18:00:00 37.1 20 Oeste 33 Oeste 0 -- -- 14
2019-08-06 17:00:00 36.7 13 Oeste 34 Oeste 0 -- -- 20
2019-08-06 16:00:00 36.1 13 Oeste 28 Oeste 0 -- -- 19
2019-08-06 15:00:00 35 9 Oeste 21 Oeste 0 -- -- 21
2019-08-06 14:00:00 33.2 8 Sudoeste 19 Sur 0 -- -- 28
2019-08-06 13:00:00 30.6 9 Sudoeste 18 Sudoeste 0 -- -- 37
2019-08-06 12:00:00 28 7 Oeste 18 Sudoeste 0 -- -- 44
2019-08-06 11:00:00 25.2 4 Sudoeste 8 Oeste 0 -- -- 54
2019-08-06 10:00:00 22.8 2 Norte 11 Norte 0 -- -- 62
2019-08-06 09:00:00 20.3 4 Nordeste 9 Nordeste 0 -- -- 61
2019-08-06 08:00:00 18.6 0 Calma 51 Sudeste -- -- -- 66
2019-08-06 07:00:00 19 6 Sudoeste 13 Sudoeste 0 -- -- 64
2019-08-06 06:00:00 19.2 12 Sudoeste 14 Sudoeste 0 -- -- 61
2019-08-06 05:00:00 19.8 7 Oeste 20 Oeste 0 -- -- 60
2019-08-06 04:00:00 20.1 13 Oeste 16 Sudoeste 0 -- -- 56
2019-08-06 03:00:00 21.3 16 Sudoeste 26 Sudoeste 0 -- -- 47
2019-08-06 02:00:00 22.1 18 Sudoeste 26 Sur 0 -- -- 44
2019-08-06 01:00:00 23.5 21 Sudoeste 30 Sudoeste 0 -- -- 40
2019-08-06 00:00:00 24.4 22 Sudoeste 30 Sudoeste 0 -- -- 43
2019-08-05 23:00:00 26.3 24 Sudoeste 34 Sudoeste 0 -- -- 39
2019-08-05 22:00:00 29.2 23 Sudoeste 39 Sudoeste 0 -- -- 33
2019-08-05 21:00:00 32.1 29 Sudoeste 42 Sudoeste 0 -- -- 28
2019-08-05 20:00:00 34.9 33 Sudoeste 51 Sudoeste 0 -- -- 27
2019-08-05 19:00:00 37.6 22 Oeste 35 Sudoeste 0 -- -- 19
2019-08-05 18:00:00 38.3 19 Oeste 33 Oeste 0 -- -- 16
2019-08-05 17:00:00 38 19 Oeste 33 Sudoeste 0 -- -- 19
2019-08-05 16:00:00 37 14 Oeste 27 Noroeste 0 -- -- 22
2019-08-05 15:00:00 36.4 13 Oeste 25 Oeste 0 -- -- 23
2019-08-05 14:00:00 34.4 10 Oeste 20 Noroeste 0 -- -- 29
2019-08-05 13:00:00 33 6 Norte 14 Norte 0 -- -- 32
2019-08-05 12:00:00 30.4 8 Noroeste 17 Norte 0 -- -- 38
2019-08-05 11:00:00 27.9 5 Sur 11 Sur 0 -- -- 45
2019-08-05 10:00:00 26 3 Sudeste 6 Sudeste 0 -- -- 50
2019-08-05 09:00:00 22.7 3 Este 7 Norte 0 -- -- 58
2019-08-05 08:00:00 20.8 4 Norte 7 Norte 0 -- -- 63
2019-08-05 07:00:00 21.7 4 Sur 13 Sur 0 -- -- 59
2019-08-05 06:00:00 21.8 12 Sur 19 Sur 0 -- -- 59
2019-08-05 05:00:00 22.5 9 Sur 12 Sur 0 -- -- 57
2019-08-05 04:00:00 22.4 9 Sudoeste 12 Sudoeste 0 -- -- 56
2019-08-05 03:00:00 22.4 11 Sudoeste 15 Sudoeste 0 -- -- 55
2019-08-05 02:00:00 23.2 9 Sudoeste 18 Sudoeste 0 -- -- 54
2019-08-05 01:00:00 23.8 15 Sudoeste 22 Sudoeste 0 -- -- 53
2019-08-05 00:00:00 24.9 16 Sudoeste 31 Sur 0 -- -- 51
2019-08-04 23:00:00 26.5 19 Sudoeste 34 Sudoeste 0 -- -- 46
2019-08-04 22:00:00 29 21 Sudoeste 32 Sudoeste 0 -- -- 43
2019-08-04 21:00:00 32.5 28 Sudoeste 37 Sudoeste 0 -- -- 33
2019-08-04 20:00:00 35.9 24 Sudoeste 32 Sudoeste 0 -- -- 28
2019-08-04 19:00:00 37.1 17 Oeste 27 Oeste 0 -- -- 15
2019-08-04 18:00:00 37 14 Sudoeste 34 Oeste 0 -- -- 18
2019-08-04 17:00:00 36.4 15 Noroeste 24 Oeste 0 -- -- 23
2019-08-04 16:00:00 35.3 13 Oeste 23 Oeste 0 -- -- 30
2019-08-04 15:00:00 34.2 9 Oeste 21 Oeste 0 -- -- 33
2019-08-04 14:00:00 31.7 9 Oeste 18 Oeste 0 -- -- 41
2019-08-04 13:00:00 29.3 10 Oeste 20 Sudoeste 0 -- -- 47
2019-08-04 12:00:00 27 12 Sudoeste 20 Sudoeste 0 -- -- 52
2019-08-04 11:00:00 24.6 10 Sudoeste 20 Sudoeste 0 -- -- 59
2019-08-04 10:00:00 22.8 14 Sudoeste 21 Sudoeste 0 -- -- 66
2019-08-04 09:00:00 21.1 7 Oeste 11 Oeste 0 -- -- 69
2019-08-04 08:00:00 19.7 4 Norte 5 Noroeste 0 -- -- 70
2019-08-04 07:00:00 19.8 4 Noroeste 10 Oeste 0 -- -- 65
2019-08-04 06:00:00 19.7 7 Noroeste 11 Oeste 0 -- -- 68
2019-08-04 05:00:00 20 4 Noroeste 17 Sudoeste 0 -- -- 66
2019-08-04 04:00:00 20.6 15 Sudoeste 19 Sudoeste 0 -- -- 65
2019-08-04 03:00:00 20.9 15 Sudoeste 21 Sudoeste 0 -- -- 63
2019-08-04 02:00:00 21.5 18 Sudoeste 26 Sudoeste 0 -- -- 57
2019-08-04 01:00:00 22.6 18 Sudoeste 24 Sudoeste 0 -- -- 54
2019-08-04 00:00:00 24 17 Sudoeste 31 Sudoeste 0 -- -- 53
2019-08-03 23:00:00 26.1 21 Sudoeste 33 Sudoeste 0 -- -- 45
2019-08-03 22:00:00 28.8 22 Sudoeste 33 Sudoeste 0 -- -- 32
2019-08-03 21:00:00 32.3 21 Sudoeste 33 Sudoeste 0 -- -- 30
2019-08-03 20:00:00 34.4 21 Sudoeste 32 Oeste 0 -- -- 21
2019-08-03 19:00:00 35.1 20 Oeste 31 Oeste 0 -- -- 21
2019-08-03 18:00:00 35.1 21 Sudoeste 35 Oeste 0 -- -- 25
2019-08-03 17:00:00 35 21 Sudoeste 32 Oeste 0 -- -- 29
2019-08-03 16:00:00 34.7 18 Sudoeste 34 Sudoeste 0 -- -- 27
2019-08-03 15:00:00 34 17 Oeste 33 Oeste 0 -- -- 28
2019-08-03 14:00:00 33 18 Oeste 31 Oeste 0 -- -- 28
2019-08-03 13:00:00 30.9 13 Sudoeste 21 Sudoeste 0 -- -- 36
2019-08-03 12:00:00 28.4 9 Oeste 22 Oeste 0 -- -- 40
2019-08-03 11:00:00 26 5 Oeste 13 Oeste 0 -- -- 46
2019-08-03 10:00:00 24.3 6 Sudoeste 10 Sudoeste 0 -- -- 47
2019-08-03 09:00:00 22.1 0 Calma 3 Norte 0 -- -- 53
2019-08-03 08:00:00 20 0 Calma 5 Noroeste 0 -- -- 52
2019-08-03 07:00:00 20.6 5 Noroeste 8 Oeste 0 -- -- 53
2019-08-03 06:00:00 20.6 5 Sudoeste 9 Sudoeste 0 -- -- 51
2019-08-03 05:00:00 20.9 5 Oeste 12 Sudoeste 0 -- -- 44
2019-08-03 04:00:00 22 10 Sudoeste 21 Sudoeste 0 -- -- 39
2019-08-03 03:00:00 22.4 18 Sudoeste 24 Sudoeste 0 -- -- 38
2019-08-03 02:00:00 22.6 19 Sudoeste 23 Sur 0 -- -- 41
2019-08-03 01:00:00 23.6 18 Sudoeste 34 Sudoeste 0 -- -- 42
2019-08-03 00:00:00 25 17 Sudoeste 22 Sudoeste 0 -- -- 39
2019-08-02 23:00:00 27.2 16 Sur 27 Sudoeste 0 -- -- 33
2019-08-02 22:00:00 29.8 17 Sudoeste 30 Sudoeste 0 -- -- 24
2019-08-02 21:00:00 33.5 23 Sudoeste 34 Oeste 0 -- -- 21
2019-08-02 20:00:00 35.8 21 Oeste 33 Sudoeste 0 -- -- 20
2019-08-02 19:00:00 36.8 18 Oeste 29 Oeste 0 -- -- 18
2019-08-02 18:00:00 37.1 18 Oeste 41 Sudoeste 0 -- -- 19
2019-08-02 17:00:00 37.1 12 Oeste 30 Sudoeste 0 -- -- 19
2019-08-02 16:00:00 36.9 11 Noroeste 28 Oeste 0 -- -- 20
2019-08-02 15:00:00 36.1 11 Sudoeste 23 Oeste 0 -- -- 20
2019-08-02 14:00:00 34.9 6 Sudoeste 21 Oeste 0 -- -- 23
2019-08-02 13:00:00 33.3 5 Sudoeste 27 Sudeste 0 -- -- 26
2019-08-02 12:00:00 31.3 5 Sudoeste 9 Sudoeste 0 -- -- 28
2019-08-02 11:00:00 29 4 Este 10 Sudeste 0 -- -- 33
2019-08-02 10:00:00 25.3 3 Nordeste 8 Norte 0 -- -- 42
2019-08-02 09:00:00 22.7 4 Norte 11 Norte 0 -- -- 50
2019-08-02 08:00:00 22 6 Sur 12 Sudoeste 0 -- -- 52
2019-08-02 07:00:00 21.5 9 Sur 14 Sur 0 -- -- 52
2019-08-02 06:00:00 21.3 9 Sur 17 Sur 0 -- -- 54
2019-08-02 05:00:00 21.7 13 Sur 18 Sur 0 -- -- 50
2019-08-02 04:00:00 21.9 13 Sur 21 Sur 0 -- -- 48
2019-08-02 03:00:00 21.7 13 Sudoeste 18 Sudoeste 0 -- -- 47
2019-08-02 02:00:00 22.5 16 Sudoeste 24 Sudoeste 0 -- -- 46
2019-08-02 01:00:00 23.5 17 Sudoeste 26 Sur 0 -- -- 45
2019-08-02 00:00:00 24.8 12 Sudoeste 28 Sudoeste 0 -- -- 42
2019-08-01 23:00:00 26.6 22 Sudoeste 42 Sudoeste 0 -- -- 43
2019-08-01 22:00:00 29.2 28 Sudoeste 47 Sudoeste 0 -- -- 46
2019-08-01 21:00:00 32.3 34 Sudoeste 43 Sudoeste 0 -- -- 41
2019-08-01 20:00:00 35.9 14 Oeste 24 Oeste 0 -- -- 24
2019-08-01 19:00:00 36.6 13 Oeste 23 Oeste 0 -- -- 22
2019-08-01 18:00:00 36.1 9 Oeste 27 Oeste 0 -- -- 25
2019-08-01 17:00:00 35.5 11 Oeste 26 Sudoeste 0 -- -- 30
2019-08-01 16:00:00 34.8 16 Oeste 28 Oeste 0 -- -- 32
2019-08-01 15:00:00 33.4 12 Oeste 24 Oeste 0 -- -- 35
2019-08-01 14:00:00 32.2 10 Oeste 22 Oeste 0 -- -- 37
2019-08-01 13:00:00 30.9 11 Noroeste 21 Oeste 0 -- -- 41
2019-08-01 12:00:00 29 10 Oeste 22 Oeste 0 -- -- 45
2019-08-01 11:00:00 27.1 6 Oeste 13 Oeste 0 -- -- 56
2019-08-01 10:00:00 25.4 10 Oeste 14 Oeste 0 -- -- 62
2019-08-01 09:00:00 23.8 6 Sudoeste 8 Sudeste 0 -- -- 72
2019-08-01 08:00:00 22.5 4 Sur 10 Sudeste 0 -- -- 75
2019-08-01 07:00:00 22.5 7 Sur 15 Sur 0 -- -- 75
2019-08-01 06:00:00 22.9 10 Sur 15 Sur 0 -- -- 72
2019-08-01 05:00:00 23.5 10 Sudoeste 17 Sudoeste 0 -- -- 69
2019-08-01 04:00:00 24.2 13 Sudoeste 28 Sudoeste 0 -- -- 68
2019-08-01 03:00:00 25.1 19 Sudoeste 27 Sudoeste 0 -- -- 64
2019-08-01 02:00:00 25.8 19 Sudoeste 33 Sudoeste 0 -- -- 63
2019-08-01 01:00:00 26.6 22 Sudoeste 35 Sudoeste 0 -- -- 59
2019-08-01 00:00:00 27.8 27 Sudoeste 35 Sudoeste 0 -- -- 55
2019-07-31 23:00:00 29.1 21 Sudoeste 39 Sudoeste 0 -- -- 50
2019-07-31 22:00:00 30.7 27 Sudoeste 37 Sudoeste 0 -- -- 46
2019-07-31 21:00:00 34.2 17 Oeste 24 Oeste 0 -- -- 30
2019-07-31 20:00:00 35.6 16 Sudoeste 26 Oeste 0 -- -- 27
2019-07-31 19:00:00 36 13 Noroeste 27 Oeste 0 -- -- 25
2019-07-31 18:00:00 36.5 12 Noroeste 31 Oeste 0 -- -- 24
2019-07-31 17:00:00 36.3 15 Oeste 29 Sudoeste 0 -- -- 24
2019-07-31 16:00:00 35.7 12 Oeste 27 Sudoeste 0 -- -- 23
2019-07-31 15:00:00 34.9 12 Sudoeste 23 Sur 0 -- -- 24
2019-07-31 14:00:00 33.8 12 Sudoeste 26 Sudoeste 0 -- -- 27
2019-07-31 13:00:00 32.5 9 Sudoeste 21 Sudoeste 0 -- -- 29
2019-07-31 12:00:00 31 12 Sur 25 Sur 0 -- -- 32
2019-07-31 11:00:00 28.7 12 Sur 19 Sur 0 -- -- 33
2019-07-31 10:00:00 26 6 Sur 14 Este 0 -- -- 34
2019-07-31 09:00:00 23.9 7 Este 10 Este 0 -- -- 41
2019-07-31 08:00:00 21.1 7 Este 12 Este 0 -- -- 37
2019-07-31 07:00:00 21.6 5 Nordeste 11 Nordeste 0 -- -- 35
2019-07-31 06:00:00 22.3 7 Nordeste 12 Este 0 -- -- 40
2019-07-31 05:00:00 22.7 6 Este 12 Este 0 -- -- 33
2019-07-31 04:00:00 24.1 8 Este 15 Sudeste 0 -- -- 23
2019-07-31 03:00:00 24.4 8 Este 14 Este 0 -- -- 23
2019-07-31 02:00:00 25.7 6 Sudeste 9 Sudeste 0 -- -- 21
2019-07-31 01:00:00 27.7 7 Norte 15 Norte 0 -- -- 20
2019-07-31 00:00:00 27.8 11 Norte 16 Noroeste 0 -- -- 18
2019-07-30 23:00:00 28.7 13 Noroeste 17 Noroeste 0 -- -- 17
2019-07-30 22:00:00 31 14 Noroeste 22 Oeste 0 -- -- 14
2019-07-30 21:00:00 34.5 15 Noroeste 20 Noroeste 0 -- -- 14
2019-07-30 20:00:00 36.2 9 Noroeste 22 Noroeste 0 -- -- 14
2019-07-30 19:00:00 36.7 12 Noroeste 24 Noroeste 0 -- -- 16
2019-07-30 18:00:00 36.1 10 Oeste 32 Noroeste 0 -- -- 17
2019-07-30 17:00:00 36.1 6 Norte 25 Norte 0 -- -- 18
2019-07-30 16:00:00 35.1 11 Noroeste 23 Noroeste 0 -- -- 20
2019-07-30 15:00:00 34.1 8 Noroeste 22 Noroeste 0 -- -- 22
2019-07-30 14:00:00 32.9 8 Norte 22 Norte 0 -- -- 23
2019-07-30 13:00:00 31.7 7 Nordeste 19 Nordeste 0 -- -- 25
2019-07-30 12:00:00 29.5 8 Nordeste 19 Nordeste 0 -- -- 29
2019-07-30 11:00:00 27.3 8 Nordeste 21 Norte 0 -- -- 32
2019-07-30 10:00:00 25.2 9 Nordeste 19 Nordeste 0 -- -- 35
2019-07-30 09:00:00 22.4 6 Nordeste 14 Nordeste 0 -- -- 42
2019-07-30 08:00:00 19 3 Nordeste 12 Norte 0 -- -- 50
2019-07-30 07:00:00 19.7 7 Nordeste 13 Nordeste 0 -- -- 48
2019-07-30 06:00:00 20.7 6 Norte 12 Nordeste 0 -- -- 45
2019-07-30 05:00:00 21.7 5 Norte 8 Norte 0 -- -- 46
2019-07-30 04:00:00 22.1 3 Sudeste 7 Sur 0 -- -- 58
2019-07-30 03:00:00 22.9 5 Sur 10 Sur 0 -- -- 56
2019-07-30 02:00:00 23.2 5 Sur 14 Sur 0 -- -- 58
2019-07-30 01:00:00 26 3 Oeste 19 Norte 0 -- -- 34
2019-07-30 00:00:00 26.7 11 Norte 17 Sudoeste 0 -- -- 38
2019-07-29 23:00:00 26.6 15 Sudoeste 32 Sudoeste 0 -- -- 51
2019-07-29 22:00:00 28.4 27 Sudoeste 35 Sudoeste 0 -- -- 47
2019-07-29 21:00:00 31.3 25 Sudoeste 42 Sudoeste 0 -- -- 38
2019-07-29 20:00:00 34.3 25 Sudoeste 32 Sudoeste 0 -- -- 26
2019-07-29 19:00:00 35.3 19 Sudoeste 27 Sudoeste 0 -- -- 24
2019-07-29 18:00:00 35.4 10 Sudoeste 31 Sudoeste 0 -- -- 22
2019-07-29 17:00:00 34.5 12 Oeste 26 Oeste 0 -- -- 23
2019-07-29 16:00:00 33.6 16 Oeste 26 Oeste 0 -- -- 27
2019-07-29 15:00:00 32.6 13 Oeste 24 Oeste 0 -- -- 26
2019-07-29 14:00:00 31 12 Oeste 22 Oeste 0 -- -- 31
2019-07-29 13:00:00 28.9 8 Oeste 18 Oeste 0 -- -- 40
2019-07-29 12:00:00 26.5 6 Oeste 21 Este 0 -- -- 54
2019-07-29 11:00:00 24.1 8 Sudoeste 16 Sudoeste 0 -- -- 64
2019-07-29 10:00:00 21.6 13 Sudoeste 19 Sudoeste 0 -- -- 74
2019-07-29 09:00:00 20 13 Sudoeste 17 Sudoeste 0 -- -- 77
2019-07-29 08:00:00 18.3 9 Sudoeste 13 Sudoeste 0 -- -- 80
2019-07-29 07:00:00 18.3 9 Sudoeste 14 Sudoeste 0 -- -- 80
2019-07-29 06:00:00 18.5 11 Sudoeste 15 Sudoeste 0 -- -- 78
2019-07-29 05:00:00 18.9 12 Sudoeste 13 Sudoeste 0 -- -- 76
2019-07-29 04:00:00 19.2 8 Oeste 14 Sudoeste 0 -- -- 75
2019-07-29 03:00:00 19.9 11 Sudoeste 18 Sudoeste 0 -- -- 73
2019-07-29 02:00:00 20.5 14 Sudoeste 23 Sudoeste 0 -- -- 73
2019-07-29 01:00:00 21.2 15 Sudoeste 27 Sudoeste 0 -- -- 68
2019-07-29 00:00:00 22 22 Sudoeste 35 Sudoeste 0 -- -- 65
2019-07-28 23:00:00 23.3 23 Sudoeste 36 Sudoeste 0 -- -- 62
2019-07-28 22:00:00 25.1 27 Sudoeste 44 Sudoeste 0 -- -- 57
2019-07-28 21:00:00 28 30 Sudoeste 44 Sudoeste 0 -- -- 50
2019-07-28 20:00:00 32 16 Sudoeste 28 Sudoeste 0 -- -- 33
2019-07-28 19:00:00 32.5 14 Sudoeste 25 Sudoeste 0 -- -- 33
2019-07-28 18:00:00 32.5 9 Oeste 25 Sudoeste 0 -- -- 33
2019-07-28 17:00:00 31.9 7 Oeste 19 Norte 0 -- -- 36
2019-07-28 16:00:00 31.1 12 Oeste 20 Sudoeste 0 -- -- 37
2019-07-28 15:00:00 29.5 5 Sudeste 16 Sudoeste 0 -- -- 43
2019-07-28 14:00:00 27.9 5 Oeste 17 Sur 0 -- -- 49
2019-07-28 13:00:00 27.9 4 Este 20 Nordeste 0 -- -- 51
2019-07-28 12:00:00 25.7 3 Sur 13 Este 0 -- -- 56
2019-07-28 11:00:00 23.6 5 Sur 20 Sur 0 -- -- 62
2019-07-28 10:00:00 21.3 6 Sur 15 Sur 0 -- -- 69
2019-07-28 09:00:00 19.8 11 Sudoeste 14 Sudoeste 0 -- -- 78
2019-07-28 08:00:00 18.6 6 Sudoeste 14 Sudoeste 0 -- -- 83
2019-07-28 07:00:00 19.2 9 Sudoeste 18 Sudoeste 0 -- -- 82
2019-07-28 06:00:00 19.2 15 Sudoeste 21 Sudoeste 0 -- -- 83
2019-07-28 05:00:00 19.2 13 Sudoeste 19 Sudoeste 0 -- -- 84
2019-07-28 04:00:00 19.3 14 Sudoeste 21 Sudoeste 0 -- -- 83
2019-07-28 03:00:00 19.8 17 Sudoeste 28 Sudoeste 0 -- -- 82
2019-07-28 02:00:00 20.1 16 Sudoeste 28 Sudoeste 0 -- -- 81
2019-07-28 01:00:00 20.4 23 Sudoeste 39 Sudoeste 0 -- -- 80
2019-07-28 00:00:00 20.8 26 Sudoeste 36 Sudoeste 0 -- -- 79
2019-07-27 23:00:00 21.6 31 Sudoeste 41 Sudoeste 0 -- -- 79
2019-07-26 12:00:00 -- -- -- -- -- -- -- -- --
2019-07-26 11:00:00 24.3 12 Sudoeste 22 Oeste 0 -- -- 69
2019-07-26 10:00:00 22.8 13 Sudoeste 26 Sudoeste 0 -- -- 76
2019-07-26 09:00:00 21.3 17 Sudoeste 24 Sudoeste 0 -- -- 83
2019-07-26 08:00:00 20.4 15 Sudoeste 20 Sudoeste 0 -- -- 85
2019-07-26 07:00:00 20.4 16 Sudoeste 20 Sudoeste 0 -- -- 83
2019-07-26 06:00:00 20.8 17 Sudoeste 28 Sudoeste 0 -- -- 80
2019-07-26 05:00:00 21.2 21 Sudoeste 33 Sudoeste 0 -- -- 78
2019-07-26 04:00:00 21.6 15 Sudoeste 30 Sudoeste 0 -- -- 74
2019-07-26 03:00:00 22.2 18 Sudoeste 28 Sudoeste 0 -- -- 71
2019-07-26 02:00:00 22.9 19 Sudoeste 33 Sudoeste 0 -- -- 68
2019-07-26 01:00:00 23.4 25 Sudoeste 32 Sudoeste 0 -- -- 65
2019-07-26 00:00:00 23.7 24 Sudoeste 33 Sudoeste 0 -- -- 68
2019-07-25 23:00:00 24.7 24 Sudoeste 35 Sudoeste 0 -- -- 64
2019-07-25 22:00:00 26.8 26 Sudoeste 40 Sudoeste 0 -- -- 58
2019-07-25 21:00:00 31 28 Sudoeste 46 Sudoeste 0 -- -- 43
2019-07-25 20:00:00 33.5 30 Sudoeste 41 Sudoeste 0 -- -- 27
2019-07-25 19:00:00 34.1 31 Sudoeste 43 Sudoeste 0 -- -- 36
2019-07-25 18:00:00 35 28 Sudoeste 50 Sudoeste 0 -- -- 37
2019-07-25 17:00:00 35.6 23 Oeste 39 Oeste 0 -- -- 33
2019-07-25 16:00:00 35.9 22 Oeste 37 Sudoeste 0 -- -- 32
2019-07-25 15:00:00 35.1 11 Oeste 25 Oeste 0 -- -- 30
2019-07-25 14:00:00 33.8 10 Sudoeste 17 Sudoeste 0 -- -- 34
2019-07-25 13:00:00 32.5 4 Sudoeste 18 Oeste 0 -- -- 37
2019-07-25 12:00:00 30.4 11 Noroeste 17 Noroeste 0 -- -- 44
2019-07-25 11:00:00 28.4 5 Oeste 13 Oeste 0 -- -- 50
2019-07-25 10:00:00 26.2 8 Sudoeste 13 Oeste 0 -- -- 59
2019-07-25 09:00:00 24.2 8 Sur 13 Sur 0 -- -- 70
2019-07-25 08:00:00 22.2 8 Sur 15 Sur 0 -- -- 77
2019-07-25 07:00:00 22.2 7 Sur 12 Sur 0 -- -- 77
2019-07-25 06:00:00 22.6 5 Sur 13 Sur 0 -- -- 76
2019-07-25 05:00:00 22.8 12 Sur 15 Sur 0 -- -- 74
2019-07-25 04:00:00 23.2 9 Sudoeste 13 Sur 0 -- -- 73
2019-07-25 03:00:00 23.8 11 Sudoeste 19 Sudoeste 0 -- -- 70
2019-07-25 02:00:00 24.9 14 Sudoeste 21 Sudoeste 0 -- -- 67
2019-07-25 01:00:00 26.2 13 Sudoeste 22 Sudoeste 0 -- -- 64
2019-07-25 00:00:00 27.9 19 Sudoeste 31 Sudoeste 0 -- -- 56
2019-07-24 23:00:00 29.5 26 Sudoeste 45 Sudoeste 0 -- -- 51
2019-07-24 22:00:00 31.7 30 Sudoeste 37 Sudoeste 0 -- -- 45
2019-07-24 21:00:00 35.1 20 Oeste 28 Sudoeste 0 -- -- 32
2019-07-24 20:00:00 36.4 21 Oeste 32 Oeste 0 -- -- 33
2019-07-24 19:00:00 37.5 19 Oeste 31 Sudoeste 0 -- -- 32
2019-07-24 18:00:00 38.1 17 Sudoeste 38 Sudoeste 0 -- -- 28
2019-07-24 17:00:00 37.9 12 Oeste 27 Sudoeste 0 -- -- 28
2019-07-24 16:00:00 37.7 16 Sudoeste 24 Sudoeste 0 -- -- 27
2019-07-24 15:00:00 36.1 9 Sudoeste 23 Sur 0 -- -- 31
2019-07-24 14:00:00 35 5 Sur 19 Sur 0 -- -- 33
2019-07-24 13:00:00 32.9 7 Sur 22 Sur 0 -- -- 40
2019-07-24 12:00:00 30.9 5 Sur 18 Oeste 0 -- -- 48
2019-07-24 11:00:00 28.1 7 Sudoeste 17 Oeste 0 -- -- 58
2019-07-24 10:00:00 26.3 9 Sudoeste 14 Sudoeste 0 -- -- 66
2019-07-24 09:00:00 24.3 6 Sudoeste 9 Sudoeste 0 -- -- 74
2019-07-24 08:00:00 22.9 5 Sur 11 Sudoeste 0 -- -- 79
2019-07-24 07:00:00 22.6 10 Sudoeste 15 Sudoeste 0 -- -- 79
2019-07-24 06:00:00 22.9 10 Sur 15 Sur 0 -- -- 77
2019-07-24 05:00:00 23.6 14 Sur 23 Sur 0 -- -- 75
2019-07-24 04:00:00 24 12 Sur 17 Sur 0 -- -- 75
2019-07-24 03:00:00 24.6 13 Sudoeste 22 Sudoeste 0 -- -- 72
2019-07-24 02:00:00 25.4 17 Sudoeste 21 Sudoeste 0 -- -- 70
2019-07-24 01:00:00 26.5 15 Sudoeste 22 Sudoeste 0 -- -- 67
2019-07-24 00:00:00 27.8 16 Sudoeste 27 Sudoeste 0 -- -- 60
2019-07-23 23:00:00 28.9 23 Sudoeste 29 Sudoeste 0 -- -- 58
2019-07-23 22:00:00 30.7 24 Sudoeste 34 Sudoeste 0 -- -- 50
2019-07-23 21:00:00 33.4 25 Sudoeste 36 Sudoeste 0 -- -- 45
2019-07-23 20:00:00 36 24 Oeste 32 Oeste 0 -- -- 38
2019-07-23 19:00:00 36.7 21 Oeste 45 Oeste 0 -- -- 35
2019-07-23 18:00:00 37.8 19 Oeste 36 Oeste 0 -- -- 31
2019-07-23 17:00:00 38.4 17 Sudoeste 30 Sudoeste 0 -- -- 28
2019-07-23 16:00:00 37.9 8 Sur 28 Sudoeste 0 -- -- 28
2019-07-23 15:00:00 36.9 8 Oeste 27 Oeste 0 -- -- 30
2019-07-23 14:00:00 35.7 7 Sudeste 19 Sur 0 -- -- 31
2019-07-23 13:00:00 34.8 5 Nordeste 17 Sudeste 0 -- -- 34
2019-07-23 12:00:00 32.5 7 Sudeste 16 Este 0 -- -- 39
2019-07-23 11:00:00 30.2 5 Este 11 Este 0 -- -- 50
2019-07-23 10:00:00 27.4 4 Norte 9 Nordeste 0 -- -- 60
2019-07-23 09:00:00 25.3 5 Sudoeste 7 Sur 0 -- -- 67
2019-07-23 08:00:00 23.8 4 Sur 13 Sur 0 -- -- 70
2019-07-23 07:00:00 23.9 10 Sur 14 Sur 0 -- -- 69
2019-07-23 06:00:00 24.6 9 Sur 15 Sur 0 -- -- 66
2019-07-23 05:00:00 25.3 10 Sur 17 Sudoeste 0 -- -- 63
2019-07-23 04:00:00 25.9 9 Sur 23 Sudoeste 0 -- -- 61
2019-07-23 03:00:00 26 17 Oeste 23 Oeste 0 -- -- 61
2019-07-23 02:00:00 26.7 3 Sur 19 Sudoeste 0 -- -- 59
2019-07-23 01:00:00 27.4 15 Sudoeste 32 Sudoeste 0 -- -- 57
2019-07-23 00:00:00 28.3 26 Sudoeste 40 Sudoeste 0 -- -- 54
2019-07-22 23:00:00 30 30 Sudoeste 44 Sudoeste 0 -- -- 50
2019-07-22 22:00:00 34.3 16 Sudoeste 22 Sudoeste 0 -- -- 38
2019-07-22 21:00:00 36.4 7 Oeste 17 Oeste 0 -- -- 34
2019-07-22 20:00:00 37.9 9 Oeste 29 Oeste 0 -- -- 32
2019-07-22 19:00:00 39.1 22 Oeste 39 Sudoeste 0 -- -- 28
2019-07-22 18:00:00 39.8 15 Sur 35 Sudeste 0 -- -- 23
2019-07-22 17:00:00 39.2 19 Sudeste 33 Este 0 -- -- 25
2019-07-22 16:00:00 38.7 16 Sudeste 33 Sudeste 0 -- -- 25
2019-07-22 15:00:00 37.8 16 Sudeste 32 Sudeste 0 -- -- 29
2019-07-22 14:00:00 36.2 7 Este 20 Este 0 -- -- 34
2019-07-22 13:00:00 34.2 8 Este 19 Este 0 -- -- 41
2019-07-22 12:00:00 32.6 4 Nordeste 12 Este 0 -- -- 44
2019-07-22 11:00:00 30.9 4 Este 12 Este 0 -- -- 50
2019-07-22 10:00:00 28.3 4 Nordeste 11 Nordeste 0 -- -- 56
2019-07-22 09:00:00 25.3 4 Sur 9 Sur 0 -- -- 61
2019-07-22 08:00:00 23.7 3 Sudeste 8 Sur 0 -- -- 64
2019-07-22 07:00:00 23.5 5 Sur 14 Sur 0 -- -- 64
2019-07-22 06:00:00 23.9 7 Noroeste 17 Noroeste 0 -- -- 64
2019-07-22 05:00:00 24 11 Noroeste 17 Noroeste 0 -- -- 62
2019-07-22 04:00:00 24.3 5 Noroeste 12 Noroeste 0 -- -- 64
2019-07-22 03:00:00 24.7 7 Noroeste 20 Sudoeste 0 -- -- 64
2019-07-22 02:00:00 25.4 15 Oeste 32 Sudoeste 0 -- -- 65
2019-07-22 01:00:00 26.3 21 Sudoeste 30 Sudoeste 0 -- -- 62
2019-07-22 00:00:00 27.5 23 Sudoeste 36 Sudoeste 0 -- -- 59
2019-07-21 23:00:00 29.3 23 Sudoeste 35 Sudoeste 0 -- -- 53
2019-07-21 22:00:00 31.6 24 Sudoeste 33 Sudoeste 0 -- -- 46
2019-07-21 21:00:00 34 23 Oeste 31 Oeste 0 -- -- 38
2019-07-21 20:00:00 36.5 22 Oeste 33 Oeste 0 -- -- 33
2019-07-21 19:00:00 37.6 20 Oeste 30 Sudoeste 0 -- -- 32
2019-07-21 18:00:00 37.7 15 Sudoeste 29 Sudoeste 0 -- -- 31
2019-07-21 17:00:00 37.8 14 Oeste 27 Oeste 0 -- -- 30
2019-07-21 16:00:00 37.2 13 Oeste 24 Oeste 0 -- -- 31
2019-07-21 15:00:00 35.8 10 Sudoeste 22 Oeste 0 -- -- 34
2019-07-21 14:00:00 34.5 6 Sur 18 Sudoeste 0 -- -- 37
2019-07-21 13:00:00 32.7 9 Sudoeste 16 Sur 0 -- -- 41
2019-07-21 12:00:00 30 10 Sudoeste 18 Sudoeste 0 -- -- 48
2019-07-21 11:00:00 28 9 Sudoeste 17 Sur 0 -- -- 54
2019-07-21 10:00:00 26.7 4 Sudeste 10 Oeste 0 -- -- 56
2019-07-21 09:00:00 24.7 6 Noroeste 10 Oeste 0 -- -- 60
2019-07-21 08:00:00 23 5 Noroeste 9 Noroeste 0 -- -- 65
2019-07-21 07:00:00 23.2 5 Noroeste 6 Noroeste 0 -- -- 63
2019-07-21 06:00:00 23.5 9 Oeste 13 Oeste 0 -- -- 63
2019-07-21 05:00:00 24.2 6 Sudoeste 14 Sudoeste 0 -- -- 57
2019-07-21 04:00:00 24.7 10 Sudoeste 17 Sudoeste 0 -- -- 52
2019-07-21 03:00:00 25.1 12 Sudoeste 24 Sudoeste 0 -- -- 50
2019-07-21 02:00:00 26.1 18 Sudoeste 31 Sudoeste 0 -- -- 47
2019-07-21 01:00:00 26.9 23 Sudoeste 46 Sudoeste 0 -- -- 44
2019-07-21 00:00:00 27.4 25 Sudoeste 35 Sudoeste 0 -- -- 44